createdAt,value
2019-02-05T00:00:03.809Z,0.00
2019-02-05T00:01:03.786Z,0.00
2019-02-05T00:02:03.761Z,0.00
2019-02-05T00:03:03.735Z,0.00
2019-02-05T00:04:03.722Z,0.00
2019-02-05T00:05:03.747Z,0.00
2019-02-05T00:06:03.666Z,0.00
2019-02-05T00:07:03.640Z,0.00
2019-02-05T00:08:03.623Z,0.00
2019-02-05T00:09:03.595Z,0.00
2019-02-05T00:10:03.575Z,0.00
2019-02-05T00:11:03.550Z,0.00
2019-02-05T00:12:03.524Z,0.00
2019-02-05T00:13:03.503Z,0.00
2019-02-05T00:14:03.478Z,0.00
2019-02-05T00:15:03.449Z,0.00
2019-02-05T00:16:03.427Z,0.00
2019-02-05T00:17:03.403Z,0.00
2019-02-05T00:18:03.379Z,0.00
2019-02-05T00:19:03.354Z,0.00
2019-02-05T00:20:03.331Z,0.00
2019-02-05T00:21:03.303Z,0.00
2019-02-05T00:22:03.279Z,0.00
2019-02-05T00:23:03.266Z,0.00
2019-02-05T00:24:03.231Z,0.00
2019-02-05T00:25:03.214Z,0.00
2019-02-05T00:26:06.462Z,0.00
2019-02-05T00:27:03.159Z,0.00
2019-02-05T00:28:03.142Z,0.00
2019-02-05T00:29:03.109Z,0.00
2019-02-05T00:30:03.091Z,0.00
2019-02-05T00:31:03.063Z,0.00
2019-02-05T00:32:03.039Z,0.00
2019-02-05T00:33:03.017Z,0.00
2019-02-05T00:34:02.991Z,0.00
2019-02-05T00:35:02.969Z,0.00
2019-02-05T00:36:02.946Z,0.00
2019-02-05T00:37:02.923Z,0.00
2019-02-05T00:38:02.893Z,0.00
2019-02-05T00:39:02.873Z,0.00
2019-02-05T00:40:02.847Z,0.00
2019-02-05T00:41:02.825Z,0.00
2019-02-05T00:42:02.797Z,0.00
2019-02-05T00:43:02.777Z,0.00
2019-02-05T00:44:02.751Z,0.00
2019-02-05T00:45:02.730Z,0.00
2019-02-05T00:46:02.703Z,0.00
2019-02-05T00:47:02.679Z,0.00
2019-02-05T00:48:02.653Z,0.00
2019-02-05T00:49:02.627Z,0.00
2019-02-05T00:50:02.605Z,0.00
2019-02-05T00:51:02.587Z,0.00
2019-02-05T00:52:02.568Z,0.00
2019-02-05T00:53:02.537Z,0.00
2019-02-05T00:54:02.508Z,0.00
2019-02-05T00:55:02.487Z,0.00
2019-02-05T00:56:02.458Z,0.00
2019-02-05T00:57:02.440Z,0.00
2019-02-05T00:58:02.415Z,0.00
2019-02-05T00:59:02.390Z,0.00
2019-02-05T01:00:02.368Z,0.00
2019-02-05T01:01:02.346Z,0.00
2019-02-05T01:02:02.318Z,0.00
2019-02-05T01:03:02.292Z,0.00
2019-02-05T01:04:02.271Z,0.00
2019-02-05T01:05:02.242Z,0.00
2019-02-05T01:06:02.219Z,0.00
2019-02-05T01:07:02.200Z,0.00
2019-02-05T01:08:02.172Z,0.00
2019-02-05T01:09:02.146Z,0.00
2019-02-05T01:10:02.126Z,0.00
2019-02-05T01:11:02.104Z,0.00
2019-02-05T01:12:02.074Z,0.00
2019-02-05T01:13:02.053Z,0.00
2019-02-05T01:14:02.028Z,0.00
2019-02-05T01:15:02.004Z,0.00
2019-02-05T01:16:01.979Z,0.00
2019-02-05T01:17:02.060Z,0.00
2019-02-05T01:18:01.932Z,0.00
2019-02-05T01:19:01.910Z,0.00
2019-02-05T01:20:01.880Z,0.00
2019-02-05T01:21:01.857Z,0.00
2019-02-05T01:22:01.836Z,0.00
2019-02-05T01:23:01.808Z,0.00
2019-02-05T01:24:01.783Z,0.00
2019-02-05T01:25:01.762Z,0.00
2019-02-05T01:26:01.746Z,0.00
2019-02-05T01:27:01.712Z,0.00
2019-02-05T01:28:01.688Z,0.00
2019-02-05T01:29:01.665Z,0.00
2019-02-05T01:30:01.638Z,0.00
2019-02-05T01:31:01.618Z,0.00
2019-02-05T01:32:01.598Z,0.00
2019-02-05T01:33:01.574Z,0.00
2019-02-05T01:34:01.542Z,0.00
2019-02-05T01:35:01.527Z,0.00
2019-02-05T01:36:01.497Z,0.00
2019-02-05T01:37:01.476Z,0.00
2019-02-05T01:38:01.450Z,0.00
2019-02-05T01:39:01.423Z,0.00
2019-02-05T01:40:01.507Z,0.00
2019-02-05T01:41:01.379Z,0.00
2019-02-05T01:42:01.350Z,0.00
2019-02-05T01:43:01.332Z,0.00
2019-02-05T01:44:01.305Z,0.00
2019-02-05T01:45:01.282Z,0.00
2019-02-05T01:46:01.256Z,0.00
2019-02-05T01:47:01.234Z,0.00
2019-02-05T01:48:01.206Z,0.00
2019-02-05T01:49:01.183Z,0.00
2019-02-05T01:50:01.160Z,0.00
2019-02-05T01:51:01.133Z,0.00
2019-02-05T01:52:01.110Z,0.00
2019-02-05T01:53:01.090Z,0.00
2019-02-05T01:54:01.063Z,0.00
2019-02-05T01:55:01.042Z,0.00
2019-02-05T01:56:01.017Z,0.00
2019-02-05T01:57:00.990Z,0.00
2019-02-05T01:58:00.963Z,0.00
2019-02-05T01:59:00.944Z,0.00
2019-02-05T02:00:00.918Z,0.00
2019-02-05T02:01:00.891Z,0.00
2019-02-05T02:02:00.868Z,0.00
2019-02-05T02:03:00.848Z,0.00
2019-02-05T02:04:00.825Z,0.00
2019-02-05T02:05:00.800Z,0.00
2019-02-05T02:06:00.786Z,0.00
2019-02-05T02:07:00.748Z,0.00
2019-02-05T02:08:00.728Z,0.00
2019-02-05T02:09:00.702Z,0.00
2019-02-05T02:10:00.675Z,0.00
2019-02-05T02:11:00.658Z,0.00
2019-02-05T02:12:00.633Z,0.00
2019-02-05T02:13:00.607Z,0.00
2019-02-05T02:14:00.585Z,0.00
2019-02-05T02:15:00.556Z,0.00
2019-02-05T02:16:00.535Z,0.00
2019-02-05T02:17:00.510Z,0.00
2019-02-05T02:18:00.485Z,0.00
2019-02-05T02:19:00.464Z,0.00
2019-02-05T02:20:00.439Z,0.00
2019-02-05T02:21:00.415Z,0.00
2019-02-05T02:22:00.389Z,0.00
2019-02-05T02:23:00.364Z,0.00
2019-02-05T02:24:00.341Z,0.00
2019-02-05T02:25:00.319Z,0.00
2019-02-05T02:26:00.302Z,0.00
2019-02-05T02:27:00.273Z,0.00
2019-02-05T02:28:00.248Z,0.00
2019-02-05T02:29:00.226Z,0.00
2019-02-05T02:30:00.331Z,0.00
2019-02-05T02:31:00.169Z,0.00
2019-02-05T02:32:00.148Z,0.00
2019-02-05T02:33:00.124Z,0.00
2019-02-05T02:34:00.103Z,0.00
2019-02-05T02:35:00.299Z,0.00
2019-02-05T02:36:00.053Z,0.00
2019-02-05T02:37:00.032Z,0.00
2019-02-05T02:38:00.015Z,0.00
2019-02-05T02:38:59.987Z,0.00
2019-02-05T02:39:59.957Z,0.00
2019-02-05T02:40:59.932Z,0.00
2019-02-05T02:41:59.909Z,0.00
2019-02-05T02:42:59.881Z,0.00
2019-02-05T02:43:59.863Z,0.00
2019-02-05T02:44:59.840Z,0.00
2019-02-05T02:45:59.809Z,0.00
2019-02-05T02:46:59.787Z,0.00
2019-02-05T02:47:59.766Z,0.00
2019-02-05T02:48:59.747Z,0.00
2019-02-05T02:49:59.720Z,0.00
2019-02-05T02:50:59.693Z,0.00
2019-02-05T02:51:59.675Z,0.00
2019-02-05T02:52:59.645Z,0.00
2019-02-05T02:53:59.626Z,0.00
2019-02-05T02:54:59.595Z,0.00
2019-02-05T02:55:59.570Z,0.00
2019-02-05T02:57:04.828Z,0.00
2019-02-05T02:57:59.529Z,0.00
2019-02-05T02:58:59.502Z,0.00
2019-02-05T02:59:59.476Z,0.00
2019-02-05T03:00:59.450Z,0.00
2019-02-05T03:01:59.431Z,0.00
2019-02-05T03:02:59.407Z,0.00
2019-02-05T03:03:59.386Z,0.00
2019-02-05T03:04:59.357Z,0.00
2019-02-05T03:05:59.332Z,0.00
2019-02-05T03:06:59.306Z,0.00
2019-02-05T03:07:59.282Z,0.00
2019-02-05T03:08:59.259Z,0.00
2019-02-05T03:09:59.240Z,0.00
2019-02-05T03:10:59.209Z,0.00
2019-02-05T03:11:59.188Z,0.00
2019-02-05T03:12:59.162Z,0.00
2019-02-05T03:13:59.141Z,0.00
2019-02-05T03:14:59.152Z,0.00
2019-02-05T03:15:59.093Z,0.00
2019-02-05T03:16:59.069Z,0.00
2019-02-05T03:17:59.041Z,0.00
2019-02-05T03:18:59.023Z,0.00
2019-02-05T03:19:58.999Z,0.00
2019-02-05T03:20:58.973Z,0.00
2019-02-05T03:21:58.952Z,0.00
2019-02-05T03:22:58.926Z,0.00
2019-02-05T03:23:58.899Z,0.00
2019-02-05T03:24:58.873Z,0.00
2019-02-05T03:25:58.854Z,0.00
2019-02-05T03:26:58.824Z,0.00
2019-02-05T03:27:58.808Z,0.00
2019-02-05T03:28:58.786Z,0.00
2019-02-05T03:29:58.757Z,0.00
2019-02-05T03:30:58.747Z,0.00
2019-02-05T03:31:58.708Z,0.00
2019-02-05T03:32:58.886Z,0.00
2019-02-05T03:33:58.662Z,0.00
2019-02-05T03:34:58.644Z,0.00
2019-02-05T03:35:58.615Z,0.00
2019-02-05T03:36:58.585Z,0.00
2019-02-05T03:37:58.562Z,0.00
2019-02-05T03:38:58.536Z,0.00
2019-02-05T03:39:58.514Z,0.00
2019-02-05T03:40:58.488Z,0.00
2019-02-05T03:41:58.468Z,0.00
2019-02-05T03:42:58.446Z,0.00
2019-02-05T03:43:58.418Z,0.00
2019-02-05T03:44:58.398Z,0.00
2019-02-05T03:45:58.374Z,0.00
2019-02-05T03:46:58.350Z,0.00
2019-02-05T03:47:58.322Z,0.00
2019-02-05T03:48:58.303Z,0.00
2019-02-05T03:49:58.274Z,0.00
2019-02-05T03:50:58.253Z,0.00
2019-02-05T03:51:58.224Z,0.00
2019-02-05T03:52:58.206Z,0.00
2019-02-05T03:53:58.180Z,0.00
2019-02-05T03:54:58.156Z,0.00
2019-02-05T03:55:58.133Z,0.00
2019-02-05T03:56:58.108Z,0.00
2019-02-05T03:57:58.084Z,0.00
2019-02-05T03:58:58.060Z,0.00
2019-02-05T03:59:58.036Z,0.00
2019-02-05T04:00:58.016Z,0.00
2019-02-05T04:01:58.036Z,0.00
2019-02-05T04:02:57.966Z,0.00
2019-02-05T04:03:57.940Z,0.00
2019-02-05T04:04:57.916Z,0.00
2019-02-05T04:05:57.893Z,0.00
2019-02-05T04:06:57.871Z,0.00
2019-02-05T04:07:57.847Z,0.00
2019-02-05T04:08:57.820Z,0.00
2019-02-05T04:09:57.793Z,0.00
2019-02-05T04:10:57.769Z,0.00
2019-02-05T04:11:57.749Z,0.00
2019-02-05T04:12:57.726Z,0.00
2019-02-05T04:13:57.700Z,0.00
2019-02-05T04:14:57.676Z,0.00
2019-02-05T04:15:57.651Z,0.00
2019-02-05T04:16:57.630Z,0.00
2019-02-05T04:17:57.618Z,0.00
2019-02-05T04:18:57.585Z,0.00
2019-02-05T04:19:57.567Z,0.00
2019-02-05T04:20:57.537Z,0.00
2019-02-05T04:21:57.509Z,0.00
2019-02-05T04:22:57.487Z,0.00
2019-02-05T04:23:57.460Z,0.00
2019-02-05T04:24:57.437Z,0.00
2019-02-05T04:25:57.420Z,0.00
2019-02-05T04:26:57.393Z,0.00
2019-02-05T04:27:57.366Z,0.00
2019-02-05T04:28:57.340Z,0.00
2019-02-05T04:29:57.317Z,0.00
2019-02-05T04:30:57.297Z,0.00
2019-02-05T04:31:57.269Z,0.00
2019-02-05T04:32:57.248Z,0.00
2019-02-05T04:33:57.225Z,0.00
2019-02-05T04:34:57.200Z,0.00
2019-02-05T04:35:57.172Z,0.00
2019-02-05T04:36:57.691Z,0.00
2019-02-05T04:37:57.125Z,0.00
2019-02-05T04:38:57.099Z,0.00
2019-02-05T04:39:57.080Z,0.00
2019-02-05T04:40:57.048Z,0.00
2019-02-05T04:41:57.030Z,0.00
2019-02-05T04:42:57.009Z,0.00
2019-02-05T04:43:56.986Z,0.00
2019-02-05T04:44:56.962Z,0.00
2019-02-05T04:45:56.935Z,0.00
2019-02-05T04:46:56.911Z,0.00
2019-02-05T04:47:56.889Z,0.00
2019-02-05T04:48:56.866Z,0.00
2019-02-05T04:49:56.839Z,0.00
2019-02-05T04:50:56.815Z,0.00
2019-02-05T04:51:56.792Z,0.00
2019-02-05T04:52:56.861Z,0.00
2019-02-05T04:53:56.742Z,0.00
2019-02-05T04:54:56.720Z,0.00
2019-02-05T04:55:56.699Z,0.00
2019-02-05T04:56:56.673Z,0.00
2019-02-05T04:58:00.785Z,0.00
2019-02-05T04:58:56.623Z,0.00
2019-02-05T04:59:56.603Z,0.00
2019-02-05T05:00:56.579Z,0.00
2019-02-05T05:01:56.555Z,0.00
2019-02-05T05:02:56.531Z,0.00
2019-02-05T05:03:56.507Z,0.00
2019-02-05T05:04:56.482Z,0.00
2019-02-05T05:05:56.454Z,0.00
2019-02-05T05:06:56.435Z,0.00
2019-02-05T05:07:56.411Z,0.00
2019-02-05T05:08:56.386Z,0.00
2019-02-05T05:09:56.362Z,0.00
2019-02-05T05:10:56.332Z,0.00
2019-02-05T05:11:56.313Z,0.00
2019-02-05T05:12:56.287Z,0.00
2019-02-05T05:13:56.264Z,0.00
2019-02-05T05:14:56.239Z,0.00
2019-02-05T05:15:56.219Z,0.00
2019-02-05T05:16:56.193Z,0.00
2019-02-05T05:17:56.165Z,0.00
2019-02-05T05:18:56.144Z,0.00
2019-02-05T05:19:56.121Z,0.00
2019-02-05T05:20:56.099Z,0.00
2019-02-05T05:21:56.077Z,0.00
2019-02-05T05:22:56.044Z,0.00
2019-02-05T05:23:56.024Z,0.00
2019-02-05T05:24:56.001Z,0.00
2019-02-05T05:25:55.974Z,0.00
2019-02-05T05:26:55.961Z,0.00
2019-02-05T05:27:55.927Z,0.00
2019-02-05T05:28:55.904Z,0.00
2019-02-05T05:29:55.880Z,0.00
2019-02-05T05:30:55.854Z,0.00
2019-02-05T05:31:55.834Z,0.00
2019-02-05T05:32:55.808Z,0.00
2019-02-05T05:33:55.785Z,0.00
2019-02-05T05:34:55.760Z,0.00
2019-02-05T05:35:55.742Z,0.00
2019-02-05T05:36:55.713Z,0.00
2019-02-05T05:37:55.696Z,0.00
2019-02-05T05:38:55.662Z,0.00
2019-02-05T05:39:55.647Z,0.00
2019-02-05T05:40:55.619Z,0.00
2019-02-05T05:41:55.593Z,0.00
2019-02-05T05:42:55.567Z,0.00
2019-02-05T05:43:55.546Z,0.00
2019-02-05T05:44:55.522Z,0.00
2019-02-05T05:45:55.516Z,0.00
2019-02-05T05:46:55.470Z,0.00
2019-02-05T05:47:55.449Z,0.00
2019-02-05T05:48:55.424Z,0.00
2019-02-05T05:49:55.399Z,0.00
2019-02-05T05:50:55.372Z,0.00
2019-02-05T05:51:55.349Z,0.00
2019-02-05T05:52:55.334Z,0.00
2019-02-05T05:53:55.303Z,0.00
2019-02-05T05:54:55.280Z,0.00
2019-02-05T05:55:55.264Z,0.00
2019-02-05T05:56:55.232Z,0.00
2019-02-05T05:57:55.204Z,0.00
2019-02-05T05:58:55.180Z,0.00
2019-02-05T05:59:55.165Z,0.00
2019-02-05T06:00:55.139Z,0.00
2019-02-05T06:01:55.107Z,0.00
2019-02-05T06:02:55.093Z,0.00
2019-02-05T06:03:55.066Z,0.00
2019-02-05T06:04:55.050Z,0.00
2019-02-05T06:05:55.010Z,0.00
2019-02-05T06:06:54.994Z,0.00
2019-02-05T06:07:54.979Z,0.00
2019-02-05T06:08:54.942Z,0.00
2019-02-05T06:09:54.918Z,0.00
2019-02-05T06:10:54.891Z,0.00
2019-02-05T06:11:54.867Z,0.00
2019-02-05T06:12:54.843Z,0.00
2019-02-05T06:13:54.818Z,0.00
2019-02-05T06:14:54.791Z,0.00
2019-02-05T06:15:54.769Z,0.00
2019-02-05T06:16:54.745Z,0.00
2019-02-05T06:17:54.724Z,0.00
2019-02-05T06:18:54.697Z,0.00
2019-02-05T06:19:54.672Z,0.00
2019-02-05T06:20:54.651Z,0.00
2019-02-05T06:21:54.630Z,0.00
2019-02-05T06:22:54.600Z,0.00
2019-02-05T06:23:54.578Z,0.00
2019-02-05T06:24:54.552Z,0.00
2019-02-05T06:25:54.562Z,0.00
2019-02-05T06:26:54.504Z,0.00
2019-02-05T06:27:54.493Z,0.00
2019-02-05T06:28:54.456Z,0.00
2019-02-05T06:29:54.431Z,0.00
2019-02-05T06:30:54.411Z,0.00
2019-02-05T06:31:54.386Z,0.00
2019-02-05T06:32:54.359Z,0.00
2019-02-05T06:33:54.336Z,0.00
2019-02-05T06:34:54.310Z,0.00
2019-02-05T06:35:54.286Z,0.00
2019-02-05T06:36:54.275Z,0.00
2019-02-05T06:37:54.376Z,0.00
2019-02-05T06:38:54.214Z,0.00
2019-02-05T06:39:54.192Z,0.00
2019-02-05T06:40:54.168Z,0.00
2019-02-05T06:41:54.144Z,0.00
2019-02-05T06:42:54.122Z,0.00
2019-02-05T06:43:54.094Z,0.00
2019-02-05T06:44:54.071Z,0.00
2019-02-05T06:45:54.045Z,0.00
2019-02-05T06:46:54.021Z,0.00
2019-02-05T06:47:53.998Z,0.00
2019-02-05T06:48:53.978Z,0.00
2019-02-05T06:49:53.950Z,0.00
2019-02-05T06:50:56.750Z,5.63
2019-02-05T06:51:53.902Z,5.63
2019-02-05T06:52:53.877Z,5.63
2019-02-05T06:53:53.851Z,5.63
2019-02-05T06:54:53.826Z,5.63
2019-02-05T06:55:53.804Z,5.63
2019-02-05T06:56:53.784Z,5.63
2019-02-05T06:57:53.759Z,5.63
2019-02-05T06:58:53.733Z,5.63
2019-02-05T06:59:53.705Z,5.63
2019-02-05T07:00:53.684Z,11.25
2019-02-05T07:01:53.659Z,11.25
2019-02-05T07:02:53.637Z,11.25
2019-02-05T07:03:53.614Z,11.25
2019-02-05T07:04:53.589Z,11.25
2019-02-05T07:05:53.562Z,11.25
2019-02-05T07:06:53.541Z,11.25
2019-02-05T07:07:53.519Z,11.25
2019-02-05T07:08:53.489Z,16.88
2019-02-05T07:09:53.533Z,16.88
2019-02-05T07:10:53.442Z,16.88
2019-02-05T07:11:53.421Z,16.88
2019-02-05T07:12:53.401Z,16.88
2019-02-05T07:13:53.369Z,16.88
2019-02-05T07:14:53.349Z,22.50
2019-02-05T07:15:53.323Z,22.50
2019-02-05T07:16:53.300Z,22.50
2019-02-05T07:17:53.275Z,16.88
2019-02-05T07:18:53.256Z,22.50
2019-02-05T07:19:53.227Z,22.50
2019-02-05T07:20:53.204Z,22.50
2019-02-05T07:21:53.176Z,22.50
2019-02-05T07:22:55.649Z,22.50
2019-02-05T07:23:53.132Z,22.50
2019-02-05T07:24:53.109Z,22.50
2019-02-05T07:25:53.091Z,28.13
2019-02-05T07:26:53.057Z,33.75
2019-02-05T07:27:53.068Z,39.38
2019-02-05T07:29:00.038Z,45.00
2019-02-05T07:29:52.990Z,45.00
2019-02-05T07:30:52.971Z,45.00
2019-02-05T07:31:52.942Z,45.00
2019-02-05T07:32:52.915Z,50.63
2019-02-05T07:33:52.892Z,45.00
2019-02-05T07:34:52.867Z,39.38
2019-02-05T07:35:52.844Z,39.38
2019-02-05T07:36:52.817Z,39.38
2019-02-05T07:37:52.799Z,39.38
2019-02-05T07:38:52.780Z,45.00
2019-02-05T07:39:52.752Z,45.00
2019-02-05T07:40:52.723Z,45.00
2019-02-05T07:41:52.701Z,45.00
2019-02-05T07:42:52.674Z,45.00
2019-02-05T07:43:52.651Z,50.63
2019-02-05T07:44:52.630Z,50.63
2019-02-05T07:45:52.599Z,56.25
2019-02-05T07:46:52.587Z,61.88
2019-02-05T07:47:52.553Z,61.88
2019-02-05T07:48:52.531Z,61.88
2019-02-05T07:49:52.510Z,56.25
2019-02-05T07:50:52.481Z,61.88
2019-02-05T07:51:52.459Z,67.50
2019-02-05T07:52:52.437Z,67.50
2019-02-05T07:53:52.415Z,67.50
2019-02-05T07:54:52.385Z,61.88
2019-02-05T07:55:52.359Z,56.25
2019-02-05T07:56:52.345Z,56.25
2019-02-05T07:57:52.324Z,67.50
2019-02-05T07:58:52.344Z,73.13
2019-02-05T07:59:52.272Z,67.50
2019-02-05T08:00:52.244Z,61.88
2019-02-05T08:01:52.217Z,61.88
2019-02-05T08:02:52.196Z,73.13
2019-02-05T08:03:52.177Z,73.13
2019-02-05T08:04:52.152Z,73.13
2019-02-05T08:05:52.123Z,73.13
2019-02-05T08:06:52.099Z,73.13
2019-02-05T08:07:52.081Z,73.13
2019-02-05T08:08:52.059Z,73.13
2019-02-05T08:09:52.046Z,73.13
2019-02-05T08:10:52.006Z,67.50
2019-02-05T08:11:51.991Z,78.75
2019-02-05T08:12:51.959Z,90.00
2019-02-05T08:13:51.936Z,95.63
2019-02-05T08:14:51.905Z,95.63
2019-02-05T08:15:51.889Z,95.63
2019-02-05T08:16:51.862Z,90.00
2019-02-05T08:17:51.839Z,90.00
2019-02-05T08:18:51.815Z,101.25
2019-02-05T08:19:51.799Z,101.25
2019-02-05T08:20:51.765Z,101.25
2019-02-05T08:21:51.741Z,95.63
2019-02-05T08:22:51.717Z,106.88
2019-02-05T08:23:51.696Z,112.50
2019-02-05T08:24:51.670Z,112.50
2019-02-05T08:25:51.648Z,101.25
2019-02-05T08:26:51.622Z,78.75
2019-02-05T08:27:51.599Z,78.75
2019-02-05T08:28:51.579Z,95.63
2019-02-05T08:29:51.547Z,106.88
2019-02-05T08:30:51.533Z,118.13
2019-02-05T08:31:51.503Z,129.38
2019-02-05T08:32:51.479Z,135.00
2019-02-05T08:33:51.454Z,123.75
2019-02-05T08:34:51.430Z,123.75
2019-02-05T08:35:51.410Z,135.00
2019-02-05T08:36:51.385Z,112.50
2019-02-05T08:37:51.362Z,112.50
2019-02-05T08:38:51.340Z,78.75
2019-02-05T08:39:51.322Z,112.50
2019-02-05T08:40:51.293Z,123.75
2019-02-05T08:41:51.270Z,112.50
2019-02-05T08:42:51.246Z,135.00
2019-02-05T08:43:51.219Z,135.00
2019-02-05T08:44:51.198Z,151.88
2019-02-05T08:45:56.809Z,151.88
2019-02-05T08:46:51.148Z,157.50
2019-02-05T08:47:51.126Z,146.25
2019-02-05T08:48:51.104Z,140.63
2019-02-05T08:49:51.080Z,146.25
2019-02-05T08:50:51.053Z,140.63
2019-02-05T08:51:51.030Z,112.50
2019-02-05T08:52:51.008Z,118.13
2019-02-05T08:53:50.984Z,118.13
2019-02-05T08:54:50.969Z,118.13
2019-02-05T08:55:50.936Z,106.88
2019-02-05T08:56:50.912Z,106.88
2019-02-05T08:57:50.892Z,106.88
2019-02-05T08:58:50.862Z,101.25
2019-02-05T08:59:50.841Z,112.50
2019-02-05T09:00:50.870Z,112.50
2019-02-05T09:01:50.794Z,112.50
2019-02-05T09:02:50.772Z,118.13
2019-02-05T09:03:50.750Z,95.63
2019-02-05T09:04:50.719Z,84.38
2019-02-05T09:05:50.696Z,95.63
2019-02-05T09:06:50.682Z,95.63
2019-02-05T09:07:50.651Z,90.00
2019-02-05T09:08:50.632Z,78.75
2019-02-05T09:09:50.606Z,73.13
2019-02-05T09:10:50.581Z,84.38
2019-02-05T09:11:50.558Z,90.00
2019-02-05T09:12:50.536Z,95.63
2019-02-05T09:13:50.511Z,106.88
2019-02-05T09:14:50.492Z,106.88
2019-02-05T09:15:50.465Z,118.13
2019-02-05T09:16:50.440Z,140.63
2019-02-05T09:17:50.418Z,135.00
2019-02-05T09:18:50.400Z,129.38
2019-02-05T09:19:50.368Z,129.38
2019-02-05T09:20:50.347Z,123.75
2019-02-05T09:21:50.325Z,123.75
2019-02-05T09:22:50.297Z,123.75
2019-02-05T09:23:50.273Z,123.75
2019-02-05T09:24:50.251Z,123.75
2019-02-05T09:25:50.239Z,129.38
2019-02-05T09:26:50.203Z,135.00
2019-02-05T09:27:50.179Z,135.00
2019-02-05T09:28:52.490Z,129.38
2019-02-05T09:29:50.137Z,118.13
2019-02-05T09:30:50.112Z,106.88
2019-02-05T09:31:50.088Z,101.25
2019-02-05T09:32:50.061Z,101.25
2019-02-05T09:33:50.050Z,101.25
2019-02-05T09:34:50.019Z,118.13
2019-02-05T09:35:50.050Z,140.63
2019-02-05T09:36:49.971Z,146.25
2019-02-05T09:37:50.054Z,146.25
2019-02-05T09:38:49.921Z,129.38
2019-02-05T09:39:49.906Z,106.88
2019-02-05T09:40:49.878Z,106.88
2019-02-05T09:41:49.851Z,118.13
2019-02-05T09:42:49.829Z,129.38
2019-02-05T09:43:49.807Z,112.50
2019-02-05T09:44:49.785Z,95.63
2019-02-05T09:45:49.763Z,90.00
2019-02-05T09:46:49.735Z,84.38
2019-02-05T09:47:49.721Z,112.50
2019-02-05T09:48:49.691Z,146.25
2019-02-05T09:49:49.669Z,146.25
2019-02-05T09:50:49.641Z,180.00
2019-02-05T09:51:49.623Z,264.38
2019-02-05T09:52:49.594Z,225.00
2019-02-05T09:53:49.569Z,174.38
2019-02-05T09:54:49.557Z,163.13
2019-02-05T09:55:49.527Z,180.00
2019-02-05T09:56:49.502Z,202.50
2019-02-05T09:57:49.477Z,174.38
2019-02-05T09:58:49.456Z,163.13
2019-02-05T09:59:49.429Z,146.25
2019-02-05T10:00:49.410Z,151.88
2019-02-05T10:01:49.388Z,174.38
2019-02-05T10:02:49.365Z,174.38
2019-02-05T10:03:49.337Z,129.38
2019-02-05T10:04:49.317Z,112.50
2019-02-05T10:05:49.290Z,118.13
2019-02-05T10:06:50.092Z,129.38
2019-02-05T10:07:49.249Z,129.38
2019-02-05T10:08:49.225Z,146.25
2019-02-05T10:09:49.211Z,135.00
2019-02-05T10:10:49.175Z,112.50
2019-02-05T10:11:49.154Z,106.88
2019-02-05T10:12:49.130Z,123.75
2019-02-05T10:13:49.107Z,146.25
2019-02-05T10:14:49.083Z,157.50
2019-02-05T10:15:49.061Z,123.75
2019-02-05T10:16:49.040Z,112.50
2019-02-05T10:17:49.011Z,101.25
2019-02-05T10:18:48.990Z,101.25
2019-02-05T10:19:48.971Z,106.88
2019-02-05T10:20:48.949Z,106.88
2019-02-05T10:21:48.919Z,112.50
2019-02-05T10:22:48.928Z,123.75
2019-02-05T10:23:48.879Z,135.00
2019-02-05T10:24:49.979Z,140.63
2019-02-05T10:25:48.829Z,129.38
2019-02-05T10:26:48.807Z,135.00
2019-02-05T10:27:48.783Z,118.13
2019-02-05T10:28:48.758Z,112.50
2019-02-05T10:29:57.797Z,106.88
2019-02-05T10:30:48.715Z,106.88
2019-02-05T10:31:48.693Z,112.50
2019-02-05T10:32:48.667Z,106.88
2019-02-05T10:33:55.312Z,112.50
2019-02-05T10:34:48.616Z,129.38
2019-02-05T10:35:48.597Z,112.50
2019-02-05T10:36:48.573Z,106.88
2019-02-05T10:37:48.623Z,95.63
2019-02-05T10:38:48.546Z,101.25
2019-02-05T10:39:48.504Z,101.25
2019-02-05T10:40:48.479Z,95.63
2019-02-05T10:41:48.463Z,106.88
2019-02-05T10:42:48.440Z,101.25
2019-02-05T10:43:48.416Z,101.25
2019-02-05T10:44:48.398Z,106.88
2019-02-05T10:45:48.363Z,95.63
2019-02-05T10:46:48.342Z,101.25
2019-02-05T10:47:48.321Z,101.25
2019-02-05T10:48:48.298Z,101.25
2019-02-05T10:49:48.276Z,106.88
2019-02-05T10:50:48.253Z,101.25
2019-02-05T10:51:48.227Z,112.50
2019-02-05T10:52:48.294Z,112.50
2019-02-05T10:53:48.181Z,112.50
2019-02-05T10:54:48.163Z,101.25
2019-02-05T10:55:48.133Z,112.50
2019-02-05T10:56:48.113Z,106.88
2019-02-05T10:57:48.091Z,106.88
2019-02-05T10:58:48.066Z,112.50
2019-02-05T10:59:48.048Z,106.88
2019-02-05T11:00:48.024Z,112.50
2019-02-05T11:01:47.998Z,118.13
2019-02-05T11:02:47.973Z,112.50
2019-02-05T11:03:47.952Z,106.88
2019-02-05T11:04:47.928Z,112.50
2019-02-05T11:05:47.908Z,106.88
2019-02-05T11:06:47.891Z,106.88
2019-02-05T11:07:47.858Z,106.88
2019-02-05T11:08:47.845Z,106.88
2019-02-05T11:09:47.812Z,101.25
2019-02-05T11:10:47.789Z,106.88
2019-02-05T11:11:47.780Z,106.88
2019-02-05T11:12:47.749Z,106.88
2019-02-05T11:13:47.720Z,106.88
2019-02-05T11:14:47.696Z,106.88
2019-02-05T11:15:47.680Z,101.25
2019-02-05T11:16:47.683Z,101.25
2019-02-05T11:17:47.626Z,112.50
2019-02-05T11:18:47.607Z,106.88
2019-02-05T11:19:47.582Z,101.25
2019-02-05T11:20:47.566Z,101.25
2019-02-05T11:21:47.535Z,106.88
2019-02-05T11:22:47.516Z,112.50
2019-02-05T11:23:47.492Z,118.13
2019-02-05T11:24:47.468Z,129.38
2019-02-05T11:25:47.445Z,118.13
2019-02-05T11:26:47.424Z,118.13
2019-02-05T11:27:47.396Z,129.38
2019-02-05T11:28:47.378Z,123.75
2019-02-05T11:29:47.348Z,129.38
2019-02-05T11:30:47.328Z,135.00
2019-02-05T11:31:47.306Z,135.00
2019-02-05T11:32:47.291Z,129.38
2019-02-05T11:33:47.259Z,140.63
2019-02-05T11:34:47.240Z,146.25
2019-02-05T11:35:47.212Z,140.63
2019-02-05T11:36:47.198Z,135.00
2019-02-05T11:37:47.168Z,129.38
2019-02-05T11:38:47.151Z,129.38
2019-02-05T11:39:47.124Z,118.13
2019-02-05T11:40:47.099Z,118.13
2019-02-05T11:41:47.077Z,118.13
2019-02-05T11:42:47.056Z,112.50
2019-02-05T11:43:47.032Z,106.88
2019-02-05T11:44:47.006Z,106.88
2019-02-05T11:45:46.989Z,123.75
2019-02-05T11:46:46.963Z,123.75
2019-02-05T11:47:46.944Z,129.38
2019-02-05T11:48:46.919Z,129.38
2019-02-05T11:49:46.891Z,129.38
2019-02-05T11:50:46.876Z,135.00
2019-02-05T11:51:46.845Z,140.63
2019-02-05T11:52:46.825Z,129.38
2019-02-05T11:53:46.883Z,112.50
2019-02-05T11:54:46.781Z,123.75
2019-02-05T11:55:46.757Z,140.63
2019-02-05T11:56:46.737Z,123.75
2019-02-05T11:57:46.711Z,129.38
2019-02-05T11:58:46.687Z,123.75
2019-02-05T11:59:46.671Z,118.13
2019-02-05T12:00:46.643Z,129.38
2019-02-05T12:01:46.623Z,123.75
2019-02-05T12:02:49.005Z,140.63
2019-02-05T12:03:46.574Z,129.38
2019-02-05T12:04:46.550Z,112.50
2019-02-05T12:05:46.533Z,118.13
2019-02-05T12:06:46.511Z,106.88
2019-02-05T12:07:46.488Z,112.50
2019-02-05T12:08:46.459Z,95.63
2019-02-05T12:09:46.436Z,123.75
2019-02-05T12:10:46.413Z,118.13
2019-02-05T12:11:46.396Z,135.00
2019-02-05T12:12:46.372Z,135.00
2019-02-05T12:13:46.346Z,118.13
2019-02-05T12:14:46.322Z,135.00
2019-02-05T12:15:46.306Z,129.38
2019-02-05T12:16:46.277Z,129.38
2019-02-05T12:17:46.261Z,140.63
2019-02-05T12:18:46.231Z,140.63
2019-02-05T12:19:46.215Z,135.00
2019-02-05T12:20:48.193Z,140.63
2019-02-05T12:21:46.169Z,140.63
2019-02-05T12:22:46.146Z,157.50
2019-02-05T12:23:46.230Z,151.88
2019-02-05T12:24:46.104Z,135.00
2019-02-05T12:25:46.192Z,135.00
2019-02-05T12:26:46.052Z,140.63
2019-02-05T12:27:46.028Z,157.50
2019-02-05T12:28:46.006Z,174.38
2019-02-05T12:29:45.983Z,157.50
2019-02-05T12:30:45.957Z,140.63
2019-02-05T12:31:45.938Z,157.50
2019-02-05T12:32:45.919Z,196.88
2019-02-05T12:33:45.896Z,163.13
2019-02-05T12:34:45.866Z,151.88
2019-02-05T12:35:45.850Z,157.50
2019-02-05T12:36:45.825Z,140.63
2019-02-05T12:37:45.802Z,146.25
2019-02-05T12:38:45.783Z,151.88
2019-02-05T12:39:45.754Z,140.63
2019-02-05T12:40:45.740Z,146.25
2019-02-05T12:41:45.709Z,185.63
2019-02-05T12:42:45.689Z,146.25
2019-02-05T12:43:45.667Z,151.88
2019-02-05T12:44:45.646Z,185.63
2019-02-05T12:45:45.617Z,180.00
2019-02-05T12:46:45.595Z,151.88
2019-02-05T12:47:45.575Z,151.88
2019-02-05T12:48:45.552Z,157.50
2019-02-05T12:49:45.527Z,157.50
2019-02-05T12:50:45.505Z,191.25
2019-02-05T12:51:45.482Z,196.88
2019-02-05T12:52:45.459Z,208.13
2019-02-05T12:53:45.441Z,219.38
2019-02-05T12:54:45.418Z,219.38
2019-02-05T12:55:45.392Z,213.75
2019-02-05T12:56:45.375Z,191.25